NJAM2 KSAN-KNZY
Flight info
| Callsign | NJAM2 |
|---|---|
| Flight time | 0h 3m |
| Altitude | VFR |
| Route | VFR S |
| Aircraft | JSX/L-VGD/C |
Departure
| Time | 2026-04-26 17:13 |
|---|---|
| Airport | San Diego International Airport (KSAN) |
Arrival
| Time | 2026-04-26 17:17 |
|---|---|
| Airport | North Island Naval Air Station-Halsey Field (KNZY) |
| Time | Latitude | Longitude | Altitude | Speed | Heading |
|---|---|---|---|---|---|
| 2026-04-26 17:13 | 32.74647 | -117.26753 | 2815 ft | 152 kts | 272° |
| 2026-04-26 17:13 | 32.73706 | -117.26425 | 3463 ft | 185 kts | 144° |
| 2026-04-26 17:13 | 32.71637 | -117.25704 | 3776 ft | 153 kts | 185° |
| 2026-04-26 17:14 | 32.70490 | -117.25618 | 3465 ft | 188 kts | 177° |
| 2026-04-26 17:14 | 32.68360 | -117.23865 | 2547 ft | 212 kts | 118° |
| 2026-04-26 17:14 | 32.67756 | -117.22334 | 2502 ft | 209 kts | 117° |
| 2026-04-26 17:15 | 32.66031 | -117.19753 | 2614 ft | 165 kts | 104° |
| 2026-04-26 17:15 | 32.66481 | -117.18734 | 2436 ft | 129 kts | 27° |
| 2026-04-26 17:15 | 32.67415 | -117.18213 | 936 ft | 123 kts | 6° |
| 2026-04-26 17:16 | 32.68151 | -117.18405 | 422 ft | 96 kts | 311° |
| 2026-04-26 17:16 | 32.68575 | -117.19009 | 365 ft | 96 kts | 303° |
| 2026-04-26 17:16 | 32.68941 | -117.19717 | 149 ft | 96 kts | 302° |
| 2026-04-26 17:16 | 32.69247 | -117.20268 | 31 ft | 61 kts | 300° |
| 2026-04-26 17:17 | 32.69420 | -117.20592 | 21 ft | 35 kts | 296° |
| 2026-04-26 17:17 | 32.69473 | -117.20661 | 22 ft | 10 kts | 352° |
| 2026-04-26 17:17 | 32.69526 | -117.20636 | 23 ft | 0 kts | 34° |
| 2026-04-26 17:17 | 32.69530 | -117.20633 | 23 ft | 0 kts | 36° |
| 2026-04-26 17:18 | 32.69562 | -117.20633 | 23 ft | 22 kts | 315° |
| 2026-04-26 17:18 | 32.69716 | -117.20922 | 25 ft | 45 kts | 302° |
| 2026-04-26 17:18 | 32.69888 | -117.21231 | 22 ft | 53 kts | 303° |